Time;durP1;ratioP1;P1;durP2;ratioP2;P2;SDS_P1;SDS_P2;PMS_P1;PMS_P2;Temp;Humidity;BMP_temperature;BMP_pressure;BME280_temperature;BME280_humidity;BME280_pressure;Samples;Min_cycle;Max_cycle;Signal;HPM_P1;HPM_P2
2022/05/03 00:01:51;;;;;;;33.70;18.70;;;;;;;11.28;56.82;99028.66;1748118;81;20995;-39
2022/05/03 00:04:38;;;;;;;32.65;17.80;;;;;;;11.25;56.63;99022.25;1748144;81;21019;-40
2022/05/03 00:07:30;;;;;;;32.65;18.30;;;;;;;11.24;56.67;99020.55;1743071;82;21457;-40
2022/05/03 00:10:13;;;;;;;40.75;19.05;;;;;;;11.19;56.67;99019.98;1747823;81;20956;-37
2022/05/03 00:12:58;;;;;;;32.05;18.23;;;;;;;11.21;56.76;99016.81;1748111;81;20983;-40
2022/05/03 00:15:25;;;;;;;25.92;15.95;;;;;;;11.16;57.04;99018.87;1746924;82;21442;-39
2022/05/03 00:17:51;;;;;;;27.35;15.15;;;;;;;11.18;56.41;99017.00;1748224;82;20979;-40
2022/05/03 00:20:18;;;;;;;30.72;16.97;;;;;;;11.16;55.72;99014.45;1748121;82;20987;-38
2022/05/03 00:22:44;;;;;;;23.80;14.70;;;;;;;11.13;56.18;99016.82;1748330;81;21031;-39
2022/05/03 00:25:10;;;;;;;28.65;14.90;;;;;;;11.16;55.66;99013.62;1748151;81;21462;-40
2022/05/03 00:27:36;;;;;;;22.77;12.60;;;;;;;11.16;55.45;99013.62;1748162;82;21558;-40
2022/05/03 00:30:05;;;;;;;24.35;12.93;;;;;;;11.14;55.01;99015.86;1748072;81;21101;-38
2022/05/03 00:32:31;;;;;;;22.07;12.47;;;;;;;11.12;54.81;99016.91;1748044;81;21457;-39
2022/05/03 00:34:58;;;;;;;22.30;11.80;;;;;;;11.11;54.51;99015.20;1748156;81;20975;-38
2022/05/03 00:37:24;;;;;;;18.73;11.80;;;;;;;11.11;54.53;99013.44;1748322;81;20976;-40
2022/05/03 00:39:50;;;;;;;17.65;11.18;;;;;;;11.16;54.05;99010.98;1748023;81;21028;-40
2022/05/03 00:42:25;;;;;;;21.95;12.05;;;;;;;11.11;53.97;99006.86;1748063;81;21411;-41
2022/05/03 00:45:16;;;;;;;23.12;11.25;;;;;;;11.07;53.98;99006.66;1746535;81;20991;-39
2022/05/03 00:47:53;;;;;;;22.10;11.85;;;;;;;11.06;53.93;99003.66;1751323;81;21007;-38
2022/05/03 00:50:38;;;;;;;21.00;11.45;;;;;;;11.09;53.78;99011.34;1761565;81;20980;-38
2022/05/03 00:53:30;;;;;;;18.42;10.65;;;;;;;11.09;53.49;99008.72;1760491;81;22298;-36
2022/05/03 00:56:27;;;;;;;17.50;10.48;;;;;;;11.01;53.62;99016.73;1761470;81;20960;-38
2022/05/03 00:59:25;;;;;;;18.50;10.23;;;;;;;11.01;53.46;99015.42;1761634;81;20983;-40
2022/05/03 01:02:04;;;;;;;18.17;10.20;;;;;;;11.01;53.27;99018.88;1760833;81;21333;-38
2022/05/03 01:04:50;;;;;;;16.57;10.32;;;;;;;10.98;53.30;99013.80;1758978;81;21420;-38
2022/05/03 01:07:34;;;;;;;18.77;9.88;;;;;;;10.93;53.29;99021.12;1761026;81;21421;-41
2022/05/03 01:10:23;;;;;;;16.65;10.32;;;;;;;10.91;53.34;99017.30;1761441;81;20987;-38
2022/05/03 01:13:15;;;;;;;16.50;10.55;;;;;;;10.89;53.44;99014.37;1761400;81;20967;-37
2022/05/03 01:15:46;;;;;;;21.87;11.15;;;;;;;10.87;53.33;99013.62;1760816;80;20991;-36
2022/05/03 01:18:34;;;;;;;19.35;10.40;;;;;;;10.87;53.29;99007.05;1761407;81;20983;-39
2022/05/03 01:21:40;;;;;;;21.15;11.10;;;;;;;10.89;53.14;99009.94;1761545;81;20956;-37
2022/05/03 01:24:28;;;;;;;23.67;12.00;;;;;;;10.82;53.42;99009.10;1761446;80;20964;-37
2022/05/03 01:27:08;;;;;;;23.85;10.40;;;;;;;10.68;53.83;99008.16;1716004;83;20995;-37
2022/05/03 01:29:35;;;;;;;15.43;10.38;;;;;;;10.73;53.55;99003.92;1715338;83;20992;-40
2022/05/03 01:32:08;;;;;;;15.93;10.55;;;;;;;10.65;53.62;99005.71;1716159;83;21508;-36
2022/05/03 01:34:36;;;;;;;15.60;9.95;;;;;;;10.63;53.72;99008.91;1715682;83;21000;-37
2022/05/03 01:37:37;;;;;;;21.70;11.48;;;;;;;10.57;54.00;99007.97;1716132;83;20991;-39
2022/05/03 01:40:29;;;;;;;24.52;9.98;;;;;;;10.51;54.30;99010.50;1715350;83;21003;-38
2022/05/03 01:43:14;;;;;;;18.10;10.18;;;;;;;10.58;53.87;99016.22;1715325;83;20976;-38
2022/05/03 01:46:07;;;;;;;18.95;11.03;;;;;;;10.59;54.02;99017.05;1715974;83;20964;-39
2022/05/03 01:52:12;;;;;;;23.37;11.23;;;;;;;10.51;54.08;99011.81;1698384;83;20975;-37
2022/05/03 01:55:05;;;;;;;17.67;10.15;;;;;;;10.46;54.19;99015.17;1697206;83;20954;-37
2022/05/03 01:58:01;;;;;;;17.60;10.80;;;;;;;10.42;54.36;99014.95;1688634;84;21030;-37
2022/05/03 02:00:28;;;;;;;18.20;11.10;;;;;;;10.34;54.88;99016.73;1698352;84;21492;-38
2022/05/03 02:03:04;;;;;;;21.60;10.72;;;;;;;10.30;54.46;99015.20;1711578;82;20992;-39
2022/05/03 02:05:45;;;;;;;20.80;10.93;;;;;;;10.27;54.47;99014.05;1745145;81;21019;-36
2022/05/03 02:08:16;;;;;;;19.40;11.43;;;;;;;10.32;54.30;99017.30;1748015;81;21030;-41
2022/05/03 02:11:13;;;;;;;18.30;10.35;;;;;;;10.35;54.73;99014.94;1747396;81;20976;-38
2022/05/03 02:16:55;;;;;;;23.02;11.28;;;;;;;10.32;54.26;99025.66;1748135;81;20972;-40
2022/05/03 02:19:32;;;;;;;18.07;9.90;;;;;;;10.37;54.01;99020.50;1748013;81;20992;-39
2022/05/03 02:22:09;;;;;;;17.70;10.32;;;;;;;10.41;54.04;99012.45;1747291;81;20972;-40
2022/05/03 02:24:57;;;;;;;16.25;9.40;;;;;;;10.30;54.73;99020.45;1748165;81;21418;-38
2022/05/03 02:27:26;;;;;;;14.25;9.10;;;;;;;10.31;54.29;99011.64;1748012;81;20983;-37
2022/05/03 02:29:51;;;;;;;11.85;8.20;;;;;;;10.34;54.13;99015.42;1747991;81;20957;-37
2022/05/03 02:33:03;;;;;;;13.35;8.08;;;;;;;10.35;53.84;99014.94;1748027;82;21486;-37
2022/05/03 02:35:35;;;;;;;14.28;7.65;;;;;;;10.34;53.59;99008.84;1747982;81;20980;-38
2022/05/03 02:38:04;;;;;;;14.65;7.80;;;;;;;10.30;53.38;99011.25;1748092;82;21506;-39
2022/05/03 02:43:30;;;;;;;14.37;8.57;;;;;;;10.32;53.13;99009.41;1803673;79;28189;-37
2022/05/03 02:46:04;;;;;;;12.90;8.00;;;;;;;10.41;52.88;99008.50;1793055;80;22099;-38
2022/05/03 02:48:56;;;;;;;11.73;7.33;;;;;;;10.26;53.10;99008.44;1791004;80;21609;-36
2022/05/03 02:51:28;;;;;;;12.58;7.87;;;;;;;10.12;53.42;99012.33;1791893;80;21518;-39
2022/05/03 02:54:05;;;;;;;18.37;7.40;;;;;;;10.16;53.18;99009.89;1793067;80;20987;-36
2022/05/03 02:57:08;;;;;;;13.15;7.62;;;;;;;10.18;53.04;99002.28;1793311;80;20982;-37
2022/05/03 03:03:08;;;;;;;15.50;7.50;;;;;;;10.19;53.15;99005.78;1745939;82;21425;-38
2022/05/03 03:05:40;;;;;;;12.35;6.40;;;;;;;10.17;53.09;99000.61;1728407;82;21011;-36
2022/05/03 03:08:10;;;;;;;11.03;6.87;;;;;;;10.11;53.20;99004.05;1757999;81;20987;-36
2022/05/03 03:11:01;;;;;;;11.93;6.58;;;;;;;10.09;52.95;99003.30;1758403;81;21473;-38
2022/05/03 03:13:48;;;;;;;10.95;7.15;;;;;;;10.02;53.02;99004.59;1758369;81;20971;-38
2022/05/03 03:16:18;;;;;;;18.07;6.90;;;;;;;10.02;52.90;98999.34;1739085;81;21035;-37
2022/05/03 03:18:46;;;;;;;11.63;6.87;;;;;;;9.97;53.10;99000.45;1757945;81;20975;-38
2022/05/03 03:21:14;;;;;;;10.98;6.50;;;;;;;10.00;52.97;99000.73;1758416;81;21057;-37
2022/05/03 03:23:41;;;;;;;13.45;6.83;;;;;;;9.99;53.03;99005.15;1758423;81;21452;-36
2022/05/03 03:26:10;;;;;;;9.38;6.17;;;;;;;9.99;52.83;98997.27;1758481;81;20999;-38
2022/05/03 03:28:38;;;;;;;13.40;6.30;;;;;;;9.93;53.07;99000.26;1758545;81;20979;-37
2022/05/03 03:31:06;;;;;;;13.08;6.10;;;;;;;9.95;52.82;99001.02;1758329;81;21003;-38
2022/05/03 03:33:34;;;;;;;11.38;6.45;;;;;;;9.89;52.86;99003.13;1758291;81;21499;-41
2022/05/03 03:36:03;;;;;;;10.43;6.10;;;;;;;9.94;52.94;99001.09;1758318;81;21010;-39
2022/05/03 03:38:47;;;;;;;7.37;5.37;;;;;;;9.93;52.73;99003.33;1758240;81;21002;-36
2022/05/03 03:41:13;;;;;;;11.18;5.50;;;;;;;9.98;52.51;99002.61;1758314;81;20983;-39
2022/05/03 03:43:40;;;;;;;8.98;5.80;;;;;;;10.03;52.45;99008.92;1738274;81;21523;-38
2022/05/03 03:46:07;;;;;;;10.32;6.12;;;;;;;10.02;52.38;99006.73;1738358;82;21477;-37
2022/05/03 03:48:35;;;;;;;9.63;5.67;;;;;;;10.09;52.25;99000.67;1738288;82;20993;-38
2022/05/03 03:51:02;;;;;;;11.85;5.62;;;;;;;10.06;52.29;98996.90;1738090;82;21039;-40
2022/05/03 03:53:30;;;;;;;;;;;;;;;10.08;52.24;98997.21;1740588;82;21626;-36
2022/05/03 03:55:55;;;;;;;;;;;;;;;10.04;52.82;99006.66;1740289;82;20439;-38
2022/05/03 03:58:22;;;;;;;7.12;4.47;;;;;;;10.08;52.26;99005.56;1737609;82;20103;-36
2022/05/03 04:00:48;;;;;;;9.08;4.80;;;;;;;10.10;51.54;99005.01;1737658;82;21461;-38
2022/05/03 04:03:15;;;;;;;8.63;4.28;;;;;;;10.11;51.63;99004.05;1737571;82;21035;-39
2022/05/03 04:05:41;;;;;;;6.58;4.22;;;;;;;10.14;51.47;99007.35;1737754;82;21152;-39
2022/05/03 04:08:07;;;;;;;9.88;4.55;;;;;;;10.17;51.20;99016.86;1737686;82;20999;-36
2022/05/03 04:10:33;;;;;;;9.70;4.20;;;;;;;10.18;50.96;99011.48;1737622;82;21012;-38
2022/05/03 04:12:59;;;;;;;8.45;4.53;;;;;;;10.21;50.78;99015.73;1737616;82;21477;-38
2022/05/03 04:15:26;;;;;;;8.08;4.33;;;;;;;10.17;50.45;99012.44;1737693;82;21172;-38
2022/05/03 04:17:53;;;;;;;6.63;4.20;;;;;;;10.16;50.65;99013.84;1737843;82;21007;-39
2022/05/03 04:20:18;;;;;;;10.82;3.87;;;;;;;10.26;50.85;99020.26;1737774;82;20999;-39
2022/05/03 04:22:45;;;;;;;5.67;4.12;;;;;;;10.31;50.53;99015.59;1737651;82;20977;-40
2022/05/03 04:25:11;;;;;;;6.35;4.35;;;;;;;10.32;50.51;99020.40;1737669;82;21043;-36
2022/05/03 04:27:37;;;;;;;7.97;4.17;;;;;;;10.37;50.32;99027.08;1737609;82;20969;-40
2022/05/03 04:30:04;;;;;;;7.83;4.10;;;;;;;10.39;50.26;99024.36;1737559;82;20972;-37
2022/05/03 04:32:32;;;;;;;10.93;4.10;;;;;;;10.40;50.09;99027.83;1737670;82;21116;-37
2022/05/03 04:34:58;;;;;;;8.05;3.98;;;;;;;10.46;50.03;99029.64;1737535;82;21075;-36
2022/05/03 04:37:24;;;;;;;8.25;3.90;;;;;;;10.57;49.79;99030.31;1737638;82;21496;-37
2022/05/03 04:39:50;;;;;;;5.50;3.50;;;;;;;10.66;49.40;99035.47;1737700;82;21481;-39
2022/05/03 04:42:16;;;;;;;7.78;4.00;;;;;;;10.70;49.37;99029.95;1738731;82;21008;-38
2022/05/03 04:44:42;;;;;;;4.83;3.05;;;;;;;10.81;49.24;99029.78;1741756;82;20992;-39
2022/05/03 04:47:08;;;;;;;6.62;3.17;;;;;;;10.90;48.93;99038.44;1741851;82;20996;-37
2022/05/03 04:49:35;;;;;;;6.67;3.00;;;;;;;11.01;48.73;99031.20;1741740;82;21003;-40
2022/05/03 04:52:01;;;;;;;5.93;3.23;;;;;;;11.07;48.31;99032.97;1742009;82;21003;-39
2022/05/03 04:54:27;;;;;;;3.85;3.10;;;;;;;11.16;48.09;99033.36;1741895;82;21492;-39
2022/05/03 04:56:57;;;;;;;7.40;3.55;;;;;;;11.22;47.92;99031.65;1741788;82;21035;-36
2022/05/03 04:59:23;;;;;;;3.92;2.83;;;;;;;11.32;48.00;99034.93;1740804;82;21354;-39
2022/05/03 05:01:49;;;;;;;5.97;2.98;;;;;;;11.34;47.09;99037.47;1741794;82;21794;-39
2022/05/03 05:04:15;;;;;;;6.05;3.05;;;;;;;11.44;47.42;99043.00;1741879;82;21521;-38
2022/05/03 05:06:41;;;;;;;8.58;3.17;;;;;;;11.46;47.29;99044.61;1741814;82;20995;-36
2022/05/03 05:09:07;;;;;;;8.40;3.35;;;;;;;11.49;47.33;99040.45;1741773;82;21007;-37
2022/05/03 05:11:33;;;;;;;10.88;2.52;;;;;;;11.52;47.36;99041.58;1741768;82;20984;-40
2022/05/03 05:13:58;;;;;;;3.90;2.42;;;;;;;11.55;47.35;99044.95;1741755;82;21040;-37
2022/05/03 05:16:24;;;;;;;8.23;2.85;;;;;;;11.63;47.14;99047.97;1741730;82;20999;-37
2022/05/03 05:18:50;;;;;;;7.55;3.10;;;;;;;11.61;47.04;99040.64;1741829;82;20997;-39
2022/05/03 05:21:16;;;;;;;7.42;3.15;;;;;;;11.59;46.94;99044.68;1741757;82;20961;-38
2022/05/03 05:23:41;;;;;;;4.15;2.60;;;;;;;11.60;46.83;99040.25;1741835;82;20991;-37
2022/05/03 05:26:07;;;;;;;6.87;3.70;;;;;;;11.59;46.82;99043.36;1741754;82;20992;-38
2022/05/03 05:28:33;;;;;;;4.50;2.83;;;;;;;11.63;46.86;99041.37;1741853;82;21133;-38
2022/05/03 05:30:59;;;;;;;5.78;2.40;;;;;;;11.65;46.78;99046.91;1741693;82;21052;-40
2022/05/03 05:33:25;;;;;;;4.35;2.35;;;;;;;11.69;46.75;99047.08;1741902;82;21559;-38
2022/05/03 05:35:51;;;;;;;7.28;2.22;;;;;;;11.60;45.84;99046.35;1741987;82;21482;-37
2022/05/03 05:38:18;;;;;;;3.30;2.90;;;;;;;11.70;46.53;99046.63;1741997;82;20996;-37
2022/05/03 05:40:46;;;;;;;3.35;2.10;;;;;;;11.76;46.52;99046.23;1741868;82;20972;-39
2022/05/03 05:43:13;;;;;;;5.62;2.95;;;;;;;11.76;46.39;99044.08;1745107;82;21766;-36
2022/05/03 05:45:39;;;;;;;5.05;2.05;;;;;;;11.81;46.39;99042.83;1749736;82;21050;-38
2022/05/03 05:48:08;;;;;;;3.60;2.35;;;;;;;11.88;46.58;99045.92;1749583;82;21006;-38
2022/05/03 05:50:34;;;;;;;5.50;2.50;;;;;;;11.90;46.24;99052.80;1749558;82;21008;-39
2022/05/03 05:55:44;;;;;;;4.42;2.10;;;;;;;11.90;45.91;99054.13;1749604;82;21527;-40
2022/05/03 05:58:11;;;;;;;2.02;1.82;;;;;;;11.97;45.92;99062.94;1748863;82;21074;-40
2022/05/03 06:00:37;;;;;;;1.95;1.75;;;;;;;12.01;45.85;99067.09;1748399;82;21046;-38
2022/05/03 06:03:04;;;;;;;2.20;2.00;;;;;;;12.00;45.46;99057.00;1748460;82;21051;-40
2022/05/03 06:05:31;;;;;;;5.83;2.08;;;;;;;12.05;45.60;99063.30;1749719;82;21019;-37
2022/05/03 06:07:57;;;;;;;2.45;2.15;;;;;;;12.08;45.29;99069.22;1749821;82;20999;-37
2022/05/03 06:10:23;;;;;;;2.83;2.02;;;;;;;12.12;45.50;99069.87;1749530;82;21037;-38
2022/05/03 06:12:50;;;;;;;4.47;2.25;;;;;;;12.17;45.40;99069.55;1749536;82;20999;-37
2022/05/03 06:15:16;;;;;;;3.02;2.10;;;;;;;12.21;45.41;99077.66;1749675;82;21499;-39
2022/05/03 06:17:43;;;;;;;4.28;2.00;;;;;;;12.28;45.42;99073.67;1749672;82;21034;-37
2022/05/03 06:20:10;;;;;;;6.10;2.10;;;;;;;12.32;45.19;99071.20;1749889;82;21512;-39
2022/05/03 06:22:36;;;;;;;4.87;2.10;;;;;;;12.39;45.13;99071.16;1749648;82;21031;-39
2022/05/03 06:25:03;;;;;;;6.37;2.30;;;;;;;12.40;45.31;99073.32;1749562;82;21024;-38
2022/05/03 06:27:29;;;;;;;2.58;2.37;;;;;;;12.43;44.70;99077.91;1749511;82;21008;-38
2022/05/03 06:29:55;;;;;;;4.62;2.10;;;;;;;12.50;44.72;99073.09;1749557;82;20999;-36
2022/05/03 06:32:20;;;;;;;2.83;2.58;;;;;;;12.51;44.62;99075.24;1749564;82;20960;-37
2022/05/03 06:34:46;;;;;;;7.72;2.52;;;;;;;12.49;44.62;99074.02;1749679;82;20995;-39
2022/05/03 06:37:20;;;;;;;5.70;2.55;;;;;;;12.55;44.62;99075.41;1749576;82;20998;-38
2022/05/03 06:39:45;;;;;;;2.90;2.60;;;;;;;12.58;44.41;99076.52;1749534;82;21039;-37
2022/05/03 06:42:11;;;;;;;6.10;3.00;;;;;;;12.59;43.87;99076.42;1749543;82;21445;-39
2022/05/03 06:44:37;;;;;;;3.00;2.65;;;;;;;12.70;44.23;99085.39;1749650;82;21591;-40
2022/05/03 06:47:05;;;;;;;3.60;2.45;;;;;;;12.71;43.76;99084.45;1749589;82;21444;-37
2022/05/03 06:49:30;;;;;;;;;;;;;;;12.79;43.90;99084.80;1752213;82;20966;-39
2022/05/03 06:51:56;;;;;;;4.08;2.62;;;;;;;12.76;43.64;99087.64;1749586;82;20211;-36
2022/05/03 06:54:22;;;;;;;2.40;2.20;;;;;;;12.81;44.04;99092.13;1749676;82;21492;-36
2022/05/03 06:56:47;;;;;;;4.90;2.30;;;;;;;12.84;44.01;99084.86;1749654;82;20964;-38
2022/05/03 06:59:13;;;;;;;3.75;2.37;;;;;;;12.89;44.10;99084.53;1749644;82;21504;-37
2022/05/03 07:01:39;;;;;;;4.45;2.20;;;;;;;13.01;43.82;99082.38;1749568;82;20988;-39
2022/05/03 07:04:05;;;;;;;5.67;2.10;;;;;;;13.00;43.94;99087.27;1749587;82;20991;-40
2022/05/03 07:06:31;;;;;;;4.72;2.10;;;;;;;13.06;43.78;99081.59;1749568;82;20990;-38
2022/05/03 07:08:56;;;;;;;7.22;2.35;;;;;;;13.16;43.77;99090.19;1749531;82;20987;-38
2022/05/03 07:11:24;;;;;;;2.83;2.22;;;;;;;13.22;43.56;99090.62;1749699;82;20979;-40
2022/05/03 07:13:50;;;;;;;3.42;2.35;;;;;;;13.21;43.17;99085.44;1749407;82;20972;-37
2022/05/03 07:16:15;;;;;;;3.77;2.30;;;;;;;13.22;43.18;99088.44;1749561;82;21007;-39
2022/05/03 07:24:11;;;;;;;3.40;2.47;;;;;;;13.33;43.03;99081.95;1749763;82;21044;-38
2022/05/03 07:26:37;;;;;;;4.70;2.55;;;;;;;13.42;43.08;99083.98;1749555;82;20971;-37
2022/05/03 07:29:04;;;;;;;4.90;2.83;;;;;;;13.50;42.74;99082.56;1749799;82;20987;-37
2022/05/03 07:31:30;;;;;;;3.30;2.10;;;;;;;13.48;43.07;99071.27;1749944;82;20995;-39
2022/05/03 07:33:56;;;;;;;5.12;2.40;;;;;;;13.48;43.07;99071.27;1749658;82;21472;-40
2022/05/03 07:36:22;;;;;;;7.30;2.40;;;;;;;13.64;42.94;99083.75;1749696;82;21000;-36
2022/05/03 07:38:48;;;;;;;4.03;3.02;;;;;;;13.67;42.49;99083.54;1749698;82;20987;-37
2022/05/03 07:41:15;;;;;;;4.28;2.77;;;;;;;13.79;42.66;99082.67;1749705;82;20988;-39
2022/05/03 07:43:43;;;;;;;4.37;3.17;;;;;;;13.94;42.63;99082.52;1749698;82;21552;-40
2022/05/03 07:46:09;;;;;;;9.60;5.25;;;;;;;14.13;42.35;99076.23;1749704;82;20995;-39
2022/05/03 07:48:35;;;;;;;12.75;4.80;;;;;;;14.31;41.70;99083.78;1749902;82;21034;-40
2022/05/03 07:51:01;;;;;;;6.40;3.90;;;;;;;14.34;41.18;99091.01;1749769;82;21495;-41
2022/05/03 07:53:26;;;;;;;7.70;3.67;;;;;;;14.33;40.93;99087.15;1749745;82;20988;-37
2022/05/03 07:55:53;;;;;;;7.42;3.60;;;;;;;14.38;41.24;99090.30;1749841;82;20991;-39
2022/05/03 07:58:19;;;;;;;6.33;3.10;;;;;;;14.44;41.01;99099.09;1749705;82;20980;-37
2022/05/03 08:00:46;;;;;;;4.35;3.52;;;;;;;14.52;41.18;99100.70;1749819;82;20995;-37
2022/05/03 08:03:13;;;;;;;8.60;4.08;;;;;;;14.57;40.64;99109.18;1749619;82;20983;-36
2022/05/03 08:05:39;;;;;;;6.60;4.15;;;;;;;14.49;40.28;99103.57;1749802;82;20987;-39
2022/05/03 08:08:05;;;;;;;11.50;3.92;;;;;;;14.44;40.09;99105.70;1749709;82;21590;-36
2022/05/03 08:10:31;;;;;;;8.63;4.30;;;;;;;14.55;40.06;99103.59;1749920;82;20957;-39
2022/05/03 08:12:57;;;;;;;7.45;4.40;;;;;;;14.62;39.56;99105.34;1749752;82;20988;-37
2022/05/03 08:15:23;;;;;;;6.58;4.22;;;;;;;14.65;39.50;99106.44;1749678;82;20999;-39
2022/05/03 08:17:49;;;;;;;5.70;3.40;;;;;;;14.65;39.78;99114.38;1749661;82;20972;-39
2022/05/03 08:20:16;;;;;;;4.47;3.45;;;;;;;14.72;39.87;99104.53;1749738;82;20976;-39
2022/05/03 08:22:43;;;;;;;6.45;4.53;;;;;;;14.87;40.12;99115.76;1749955;82;21469;-39
2022/05/03 08:25:10;;;;;;;9.25;4.58;;;;;;;15.01;39.28;99116.50;1749783;82;21003;-39
2022/05/03 08:27:38;;;;;;;9.68;4.50;;;;;;;15.15;38.55;99112.31;1749796;82;20991;-36
2022/05/03 08:30:08;;;;;;;5.78;3.70;;;;;;;15.14;38.57;99113.30;1749594;82;21498;-39
2022/05/03 08:32:35;;;;;;;8.38;4.95;;;;;;;15.18;38.48;99118.71;1748550;82;20991;-38
2022/05/03 08:35:00;;;;;;;8.55;3.83;;;;;;;15.10;38.54;99119.31;1749682;82;21018;-37
2022/05/03 08:42:55;;;;;;;6.12;4.22;;;;;;;15.65;38.48;99115.48;1748973;82;21056;-40
2022/05/03 08:45:22;;;;;;;7.47;4.15;;;;;;;15.87;37.46;99118.62;1741787;82;20964;-39
2022/05/03 08:47:49;;;;;;;7.07;4.23;;;;;;;15.98;36.89;99117.76;1742013;82;20992;-40
2022/05/03 08:50:20;;;;;;;13.07;4.10;;;;;;;16.15;36.92;99110.25;1741985;82;20999;-36
2022/05/03 08:52:58;;;;;;;7.60;4.40;;;;;;;16.35;36.47;99109.45;1741691;82;21706;-40
2022/05/03 08:55:25;;;;;;;4.35;3.77;;;;;;;16.50;36.55;99109.53;1741695;82;20976;-37
2022/05/03 08:57:51;;;;;;;9.30;3.90;;;;;;;16.74;35.78;99110.28;1741917;82;21453;-39
2022/05/03 09:00:18;;;;;;;7.12;3.58;;;;;;;16.79;35.55;99108.91;1741767;82;20992;-36
2022/05/03 09:02:53;;;;;;;;;;;;;;;16.94;35.62;99108.63;1744295;82;20984;-39
2022/05/03 09:05:20;;;;;;;4.55;3.42;;;;;;;16.98;35.33;99112.20;1741728;82;20099;-37
2022/05/03 09:07:56;;;;;;;6.80;3.67;;;;;;;17.22;35.16;99111.09;1741808;82;21023;-40
2022/05/03 09:10:29;;;;;;;8.40;3.75;;;;;;;17.39;34.43;99105.17;1741761;82;20988;-37
2022/05/03 09:13:18;;;;;;;9.75;3.55;;;;;;;17.57;33.51;99111.17;1741937;82;20996;-38
2022/05/03 09:15:51;;;;;;;17.87;3.70;;;;;;;17.75;33.17;99105.56;1741713;82;20992;-39
2022/05/03 09:18:27;;;;;;;5.95;3.65;;;;;;;18.00;32.93;99116.24;1741680;82;21011;-38
2022/05/03 09:23:47;;;;;;;7.83;4.20;;;;;;;18.67;30.83;99108.46;1741950;82;20995;-37
2022/05/03 09:26:25;;;;;;;7.78;2.92;;;;;;;19.14;32.42;99113.90;1741742;82;21011;-39
2022/05/03 09:29:02;;;;;;;3.85;3.10;;;;;;;19.58;31.33;99108.50;1741705;82;21482;-37
2022/05/03 09:31:37;;;;;;;6.95;3.47;;;;;;;19.78;30.57;99116.78;1741721;82;21032;-40
2022/05/03 09:34:26;;;;;;;4.97;3.47;;;;;;;20.26;30.96;99108.97;1741701;82;21024;-39
2022/05/03 09:37:05;;;;;;;5.25;3.00;;;;;;;20.71;29.32;99106.75;1741638;82;20979;-38
2022/05/03 09:39:34;;;;;;;6.53;2.83;;;;;;;21.25;30.44;99101.80;1741669;82;21520;-37
2022/05/03 09:42:15;;;;;;;3.58;2.85;;;;;;;21.63;28.28;99106.38;1741685;82;21883;-38
2022/05/03 09:44:57;;;;;;;7.12;2.90;;;;;;;20.78;27.93;99103.47;1738662;82;21016;-38
2022/05/03 09:47:25;;;;;;;4.47;3.20;;;;;;;21.00;28.74;99106.97;1737413;82;20992;-38
2022/05/03 09:49:52;;;;;;;5.12;2.77;;;;;;;20.75;27.24;99102.44;1737439;82;21433;-38
2022/05/03 09:52:27;;;;;;;7.37;3.30;;;;;;;21.05;27.86;99115.36;1737649;82;21031;-39
2022/05/03 09:54:59;;;;;;;5.70;2.77;;;;;;;20.95;27.99;99105.26;1737493;82;21497;-38
2022/05/03 09:57:26;;;;;;;9.08;3.17;;;;;;;20.95;27.99;99103.92;1737077;82;21003;-38
2022/05/03 09:59:55;;;;;;;14.20;3.72;;;;;;;21.52;26.87;99104.82;1737444;82;21461;-38
2022/05/03 10:02:24;;;;;;;5.83;2.80;;;;;;;21.22;26.76;99100.26;1737418;82;20972;-37
2022/05/03 10:04:53;;;;;;;3.67;2.90;;;;;;;20.77;27.25;99105.79;1737448;82;20992;-37
2022/05/03 10:07:20;;;;;;;4.65;3.12;;;;;;;21.11;27.50;99097.02;1737461;82;21031;-38
2022/05/03 10:09:46;;;;;;;4.62;3.02;;;;;;;21.88;26.66;99097.92;1737460;82;20992;-40
2022/05/03 10:12:15;;;;;;;3.97;3.47;;;;;;;22.46;26.16;99086.86;1737695;82;21465;-37
2022/05/03 10:14:44;;;;;;;4.12;2.65;;;;;;;22.97;25.81;99084.00;1737469;82;20991;-38
2022/05/03 10:22:55;;;;;;;8.33;3.20;;;;;;;22.55;25.95;99084.52;1714538;82;21039;-38
2022/05/03 10:25:49;;;;;;;6.15;2.85;;;;;;;22.34;24.97;99094.87;1737504;82;21481;-40
2022/05/03 10:28:15;;;;;;;4.30;2.75;;;;;;;22.83;25.16;99099.42;1737431;82;21047;-41
2022/05/03 10:31:09;;;;;;;4.03;3.22;;;;;;;23.57;24.47;99093.44;1737730;82;20972;-39
2022/05/03 10:33:37;;;;;;;4.95;2.80;;;;;;;23.81;24.20;99083.12;1735975;82;21012;-38
2022/05/03 10:36:34;;;;;;;6.87;2.30;;;;;;;24.09;24.06;99079.98;1737464;82;21067;-39
2022/05/03 10:39:21;;;;;;;3.10;2.80;;;;;;;24.43;23.65;99081.42;1737451;82;21462;-39
2022/05/03 10:42:01;;;;;;;2.75;2.55;;;;;;;25.44;22.72;99084.23;1736567;82;20992;-40
2022/05/03 10:44:46;;;;;;;4.62;3.20;;;;;;;25.66;22.72;99083.80;1737378;82;21044;-38
2022/05/03 10:47:19;;;;;;;3.52;2.67;;;;;;;25.70;21.33;99087.47;1737454;82;20976;-38
2022/05/03 10:50:16;;;;;;;7.70;3.00;;;;;;;25.95;21.72;99082.11;1737435;82;20980;-38
2022/05/03 10:53:02;;;;;;;5.47;2.42;;;;;;;25.93;21.72;99071.22;1737461;82;21008;-38
2022/05/03 10:55:35;;;;;;;7.03;2.90;;;;;;;26.60;20.88;99078.98;1737650;82;20992;-39
2022/05/03 10:58:28;;;;;;;27.60;3.75;;;;;;;26.51;20.05;99080.64;1736509;82;20984;-40
2022/05/03 11:01:05;;;;;;;;;;;;;;;25.97;20.30;99080.58;1740130;82;21051;-38
2022/05/03 11:03:41;;;;;;;5.92;2.70;;;;;;;25.94;20.71;99077.77;1737445;82;20111;-40
2022/05/03 11:06:22;;;;;;;4.72;3.08;;;;;;;25.46;21.48;99080.84;1737607;82;21497;-40
2022/05/03 11:11:43;;;;;;;4.20;3.08;;;;;;;22.70;24.30;99078.49;1737682;82;20957;-37
2022/05/03 11:14:24;;;;;;;5.92;3.15;;;;;;;24.55;22.88;99079.19;1737645;82;21050;-39
2022/05/03 11:17:07;;;;;;;6.25;2.80;;;;;;;24.93;23.33;99080.03;1737558;82;21004;-39
2022/05/03 11:19:48;;;;;;;5.55;2.60;;;;;;;25.32;22.37;99074.94;1737631;82;21012;-37
2022/05/03 11:22:18;;;;;;;2.92;2.65;;;;;;;23.93;22.87;99076.88;1737501;82;21469;-40
2022/05/03 11:24:47;;;;;;;3.45;2.80;;;;;;;22.42;24.57;99061.41;1737264;82;21000;-39
2022/05/03 11:27:16;;;;;;;4.05;2.70;;;;;;;22.58;23.98;99071.31;1737553;82;21493;-39
2022/05/03 11:29:52;;;;;;;3.65;2.72;;;;;;;22.71;25.26;99072.14;1737574;82;21592;-38
2022/05/03 11:32:29;;;;;;;6.87;3.08;;;;;;;23.85;23.79;99063.00;1733266;82;20999;-38
2022/05/03 11:35:12;;;;;;;4.62;2.72;;;;;;;23.85;23.65;99059.45;1737596;82;21504;-40
2022/05/03 11:37:49;;;;;;;4.35;2.85;;;;;;;23.13;23.70;99059.04;1736463;82;21492;-38
2022/05/03 11:40:15;;;;;;;3.27;2.90;;;;;;;22.32;25.27;99064.74;1736856;82;20999;-39
2022/05/03 11:42:44;;;;;;;4.72;2.62;;;;;;;23.75;23.47;99052.94;1710567;82;20996;-38
2022/05/03 11:45:13;;;;;;;7.58;3.35;;;;;;;25.05;22.69;99049.47;1740250;82;21032;-37
2022/05/03 11:47:43;;;;;;;4.37;2.62;;;;;;;25.95;21.38;99055.69;1741727;82;20976;-40
2022/05/03 11:50:13;;;;;;;4.95;2.47;;;;;;;27.03;21.07;99051.08;1741755;82;20995;-40
2022/05/03 11:58:08;;;;;;;6.25;2.90;;;;;;;25.47;20.59;99052.08;1741769;82;20976;-38
2022/05/03 12:00:46;;;;;;;4.08;2.20;;;;;;;24.21;21.96;99050.33;1741961;82;21004;-38
2022/05/03 12:03:12;;;;;;;5.37;2.60;;;;;;;24.83;21.44;99055.23;1741677;82;21035;-38
2022/05/03 12:05:39;;;;;;;3.97;2.63;;;;;;;24.11;22.26;99059.15;1741998;82;21000;-39
2022/05/03 12:08:10;;;;;;;4.12;2.92;;;;;;;23.55;22.70;99047.98;1741902;82;21030;-39
2022/05/03 12:10:38;;;;;;;6.17;3.33;;;;;;;23.60;23.69;99043.97;1738059;82;20992;-38
2022/05/03 12:13:12;;;;;;;6.87;3.20;;;;;;;24.93;22.78;99046.93;1741721;82;21473;-37
2022/05/03 12:15:48;;;;;;;4.97;2.90;;;;;;;25.84;22.12;99045.69;1741776;82;21039;-37
2022/05/03 12:18:25;;;;;;;4.62;3.42;;;;;;;26.08;21.76;99038.83;1739569;82;21015;-37
2022/05/03 12:20:58;;;;;;;6.65;2.95;;;;;;;24.90;22.22;99042.73;1741752;82;21603;-36
2022/05/03 12:23:35;;;;;;;5.37;3.10;;;;;;;26.66;21.52;99036.09;1741720;82;20972;-40
2022/05/03 12:26:18;;;;;;;6.30;3.40;;;;;;;27.35;20.14;99036.67;1741455;82;21524;-39
2022/05/03 12:28:50;;;;;;;4.87;3.20;;;;;;;25.50;21.49;99038.22;1740405;82;21031;-38
2022/05/03 12:31:18;;;;;;;4.60;2.90;;;;;;;23.45;23.55;99040.67;1741634;82;20976;-38
2022/05/03 12:33:54;;;;;;;3.45;2.92;;;;;;;22.87;23.80;99043.15;1741597;82;21007;-38
2022/05/03 12:36:40;;;;;;;2.87;2.67;;;;;;;22.69;23.61;99028.59;1741930;82;20996;-36
2022/05/03 12:39:21;;;;;;;5.97;2.98;;;;;;;22.02;24.46;99030.88;1741716;82;21038;-36